Time;durP1;ratioP1;P1;durP2;ratioP2;P2;SDS_P1;SDS_P2;PMS_P1;PMS_P2;Temp;Humidity;BMP_temperature;BMP_pressure;BME280_temperature;BME280_humidity;BME280_pressure;Samples;Min_cycle;Max_cycle;Signal;HPM_P1;HPM_P2
2022/04/06 00:01:29;;;;;;;33.35;12.70;;;10.80;83.20;;;;;;9185545;19;20025;-65
2022/04/06 00:04:37;;;;;;;34.38;14.02;;;10.80;83.20;;;;;;9186277;19;20014;-66
2022/04/06 00:07:43;;;;;;;52.63;13.95;;;10.80;83.30;;;;;;9183821;19;20026;-65
2022/04/06 00:10:48;;;;;;;38.55;14.65;;;10.80;83.30;;;;;;9185036;19;20043;-65
2022/04/06 00:13:53;;;;;;;37.65;15.18;;;10.80;83.20;;;;;;9181972;19;20022;-65
2022/04/06 00:17:03;;;;;;;40.08;13.73;;;10.80;83.30;;;;;;9184807;19;20022;-65
2022/04/06 00:20:12;;;;;;;38.08;14.93;;;10.80;83.30;;;;;;9182883;19;20019;-65
2022/04/06 00:23:17;;;;;;;45.00;16.02;;;10.80;83.30;;;;;;9182731;19;20028;-65
2022/04/06 00:26:22;;;;;;;48.22;17.58;;;10.80;83.30;;;;;;9184079;19;20360;-66
2022/04/06 00:29:27;;;;;;;43.88;15.77;;;10.80;83.30;;;;;;9184379;19;20467;-65
2022/04/06 00:32:32;;;;;;;40.38;16.38;;;10.80;83.30;;;;;;9181715;19;20029;-66
2022/04/06 00:35:40;;;;;;;41.95;17.40;;;10.80;83.40;;;;;;9182219;19;20015;-66
2022/04/06 00:38:45;;;;;;;42.65;17.38;;;10.80;83.40;;;;;;9180864;19;20019;-67
2022/04/06 00:41:50;;;;;;;45.47;18.73;;;10.80;83.40;;;;;;9184627;19;20018;-66
2022/04/06 00:44:55;;;;;;;44.88;18.15;;;10.80;83.40;;;;;;9180491;19;20466;-65
2022/04/06 00:48:00;;;;;;;47.17;18.73;;;10.80;83.40;;;;;;9181614;19;20347;-65
2022/04/06 00:51:08;;;;;;;45.65;19.02;;;10.80;83.40;;;;;;9176142;19;20017;-66
2022/04/06 00:54:15;;;;;;;47.35;19.35;;;10.80;83.40;;;;;;9182724;19;20052;-65
2022/04/06 00:57:21;;;;;;;41.00;19.10;;;10.80;83.50;;;;;;9185080;19;20093;-64
2022/04/06 01:00:32;;;;;;;38.95;19.25;;;10.80;83.50;;;;;;9183111;19;20026;-66
2022/04/06 01:03:37;;;;;;;44.00;19.77;;;10.80;83.50;;;;;;9180575;19;20418;-66
2022/04/06 01:06:45;;;;;;;42.67;20.00;;;10.80;83.40;;;;;;9183533;19;20021;-66
2022/04/06 01:09:51;;;;;;;41.97;20.30;;;10.80;83.50;;;;;;9182487;19;20026;-65
2022/04/06 01:12:57;;;;;;;49.33;19.60;;;10.80;83.40;;;;;;9182665;19;20022;-65
2022/04/06 01:16:02;;;;;;;40.22;18.13;;;10.90;83.50;;;;;;9183620;19;20025;-66
2022/04/06 01:19:07;;;;;;;47.53;19.98;;;10.80;83.40;;;;;;9182784;19;20480;-66
2022/04/06 01:22:21;;;;;;;34.00;17.00;;;10.90;83.50;;;;;;9184043;19;20359;-66
2022/04/06 01:25:26;;;;;;;42.75;18.35;;;10.90;83.50;;;;;;9181491;19;20018;-65
2022/04/06 01:28:31;;;;;;;41.95;17.40;;;10.90;83.50;;;;;;9181648;19;20014;-67
2022/04/06 01:31:36;;;;;;;42.17;16.40;;;10.80;83.40;;;;;;9183124;19;20348;-65
2022/04/06 01:34:41;;;;;;;38.65;15.68;;;10.80;83.30;;;;;;9181987;19;20019;-65
2022/04/06 01:37:49;;;;;;;30.92;15.02;;;10.80;83.40;;;;;;9183615;19;20022;-66
2022/04/06 01:40:54;;;;;;;42.45;15.45;;;10.80;83.40;;;;;;9181475;19;20475;-66
2022/04/06 01:43:59;;;;;;;33.00;13.30;;;10.90;83.40;;;;;;9181938;19;20376;-66
2022/04/06 01:47:05;;;;;;;27.98;13.00;;;10.80;83.30;;;;;;9183122;19;20014;-66
2022/04/06 01:53:32;;;;;;;35.97;12.63;;;10.80;83.30;;;;;;9176975;19;20054;-65
2022/04/06 01:56:37;;;;;;;34.45;12.48;;;10.80;83.30;;;;;;9180759;19;20019;-65
2022/04/06 01:59:42;;;;;;;26.85;10.85;;;10.80;83.20;;;;;;9181717;19;20010;-66
2022/04/06 02:02:51;;;;;;;30.45;10.80;;;10.80;83.30;;;;;;9180948;19;20021;-65
2022/04/06 02:05:56;;;;;;;40.28;12.05;;;10.80;83.50;;;;;;9180652;19;20015;-66
2022/04/06 02:09:03;;;;;;;38.85;14.07;;;10.80;83.20;;;;;;9178115;19;20015;-66
2022/04/06 02:12:11;;;;;;;32.17;12.68;;;10.80;83.30;;;;;;9180821;19;20023;-65
2022/04/06 02:15:17;;;;;;;33.88;11.80;;;10.80;83.20;;;;;;9180518;19;20010;-65
2022/04/06 02:18:22;;;;;;;39.45;13.60;;;10.90;83.30;;;;;;9179288;19;20023;-66
2022/04/06 02:21:27;;;;;;;32.42;13.23;;;10.80;83.20;;;;;;9180940;19;20055;-65
2022/04/06 02:24:35;;;;;;;37.28;14.43;;;10.80;83.20;;;;;;9180901;19;20018;-66
2022/04/06 02:27:46;;;;;;;33.00;13.90;;;10.80;83.30;;;;;;9181572;19;20037;-65
2022/04/06 02:30:51;;;;;;;31.63;14.23;;;10.80;83.30;;;;;;9181415;19;20835;-65
2022/04/06 02:33:57;;;;;;;29.95;14.45;;;10.80;83.20;;;;;;9178925;19;20015;-65
2022/04/06 02:37:02;;;;;;;42.75;15.60;;;10.80;83.20;;;;;;9182151;19;20022;-65
2022/04/06 02:40:11;;;;;;;37.03;15.52;;;10.80;83.30;;;;;;9190420;19;20369;-66
2022/04/06 02:43:16;;;;;;;36.97;16.17;;;10.80;83.30;;;;;;9191315;19;20015;-65
2022/04/06 02:46:21;;;;;;;31.50;15.48;;;10.80;83.20;;;;;;9190372;19;20010;-65
2022/04/06 02:49:27;;;;;;;34.95;14.70;;;10.80;83.20;;;;;;9191186;19;20011;-66
2022/04/06 02:52:32;;;;;;;31.77;14.63;;;10.80;83.20;;;;;;9183830;19;20011;-66
2022/04/06 02:55:40;;;;;;;29.08;14.40;;;10.80;83.20;;;;;;9188260;19;21787;-66
2022/04/06 02:58:45;;;;;;;30.80;14.52;;;10.80;83.20;;;;;;9188373;19;20015;-66
2022/04/06 03:01:50;;;;;;;34.58;14.88;;;10.80;83.20;;;;;;9189414;19;20043;-66
2022/04/06 03:04:56;;;;;;;43.88;15.32;;;10.80;83.20;;;;;;9188586;19;20066;-66
2022/04/06 03:08:01;;;;;;;41.60;16.67;;;10.80;83.20;;;;;;9186787;19;20014;-66
2022/04/06 03:11:09;;;;;;;32.13;14.85;;;10.80;83.20;;;;;;9188437;19;20078;-65
2022/04/06 03:14:14;;;;;;;40.78;13.65;;;10.80;83.20;;;;;;9186894;19;20015;-66
2022/04/06 03:17:19;;;;;;;25.92;12.85;;;10.80;83.20;;;;;;9187788;19;20025;-65
2022/04/06 03:20:24;;;;;;;31.17;14.45;;;10.80;83.20;;;;;;9188693;19;20475;-66
2022/04/06 03:23:29;;;;;;;32.17;13.52;;;10.80;83.10;;;;;;9186891;19;20011;-66
2022/04/06 03:26:36;;;;;;;40.33;13.98;;;10.80;83.20;;;;;;9188551;19;20024;-65
2022/04/06 03:29:41;;;;;;;44.53;14.48;;;10.80;83.20;;;;;;9187728;19;20021;-64
2022/04/06 03:32:46;;;;;;;33.35;13.52;;;10.80;83.20;;;;;;9184880;19;20015;-66
2022/04/06 03:35:52;;;;;;;37.92;12.80;;;10.80;83.10;;;;;;9186081;19;20014;-66
2022/04/06 03:38:57;;;;;;;29.95;12.05;;;10.80;83.10;;;;;;9186967;19;20423;-65
2022/04/06 03:42:05;;;;;;;31.58;12.27;;;10.80;83.10;;;;;;9185959;19;20011;-66
2022/04/06 03:45:11;;;;;;;25.17;10.98;;;10.80;83.10;;;;;;9186536;19;20021;-65
2022/04/06 03:48:16;;;;;;;28.63;11.25;;;10.80;83.00;;;;;;9189324;19;20011;-67
2022/04/06 03:51:21;;;;;;;39.00;11.95;;;10.80;83.00;;;;;;9181839;19;20026;-66
2022/04/06 03:54:26;;;;;;;30.40;11.20;;;10.80;83.00;;;;;;9185307;19;20022;-66
2022/04/06 03:57:33;;;;;;;23.00;10.00;;;10.80;83.00;;;;;;9184239;19;20018;-66
2022/04/06 04:00:38;;;;;;;27.67;10.32;;;10.80;83.00;;;;;;9185045;19;20018;-65
2022/04/06 04:03:44;;;;;;;28.42;10.18;;;10.80;82.90;;;;;;9188301;19;20013;-67
2022/04/06 04:06:49;;;;;;;28.27;10.20;;;10.80;82.90;;;;;;9185758;19;20025;-67
2022/04/06 04:09:54;;;;;;;23.33;8.73;;;10.80;82.90;;;;;;9187147;19;20041;-65
2022/04/06 04:13:02;;;;;;;27.63;8.68;;;10.80;82.90;;;;;;9185425;19;20011;-65
2022/04/06 04:16:08;;;;;;;24.08;8.88;;;10.70;82.80;;;;;;9185928;19;20015;-66
2022/04/06 04:19:13;;;;;;;24.10;9.13;;;10.70;82.80;;;;;;9187265;19;20006;-66
2022/04/06 04:22:18;;;;;;;23.27;8.57;;;10.70;82.70;;;;;;9186416;19;20466;-66
2022/04/06 04:25:23;;;;;;;24.27;7.25;;;10.70;82.70;;;;;;9187777;19;20018;-66
2022/04/06 04:28:31;;;;;;;23.63;7.57;;;10.70;82.70;;;;;;9184105;19;20482;-66
2022/04/06 04:31:36;;;;;;;25.25;7.53;;;10.70;82.70;;;;;;9186762;19;20023;-66
2022/04/06 04:34:41;;;;;;;15.73;7.43;;;10.70;82.60;;;;;;9183707;19;20014;-65
2022/04/06 04:37:46;;;;;;;22.20;6.55;;;10.70;82.60;;;;;;9183947;19;20021;-65
2022/04/06 04:40:51;;;;;;;14.95;6.22;;;10.70;82.60;;;;;;9186130;19;20033;-65
2022/04/06 04:43:59;;;;;;;18.85;5.85;;;10.70;82.60;;;;;;9184691;19;20463;-66
2022/04/06 04:47:04;;;;;;;21.23;6.82;;;10.70;82.50;;;;;;9183523;19;20014;-66
2022/04/06 04:50:10;;;;;;;18.65;6.55;;;10.70;82.50;;;;;;9184585;19;20018;-66
2022/04/06 04:53:15;;;;;;;22.10;6.60;;;10.70;82.50;;;;;;9178245;19;20019;-67
2022/04/06 04:56:20;;;;;;;19.08;6.05;;;10.60;82.40;;;;;;9185110;19;20459;-66
2022/04/06 04:59:27;;;;;;;17.58;5.90;;;10.60;82.40;;;;;;9182967;19;20353;-65
2022/04/06 05:02:32;;;;;;;19.48;6.50;;;10.60;82.30;;;;;;9182029;19;20030;-65
2022/04/06 05:05:39;;;;;;;17.30;5.75;;;10.60;82.30;;;;;;9184779;19;20050;-66
2022/04/06 05:08:44;;;;;;;23.25;5.28;;;10.60;82.30;;;;;;9180547;19;20367;-65
2022/04/06 05:11:49;;;;;;;17.33;4.70;;;10.60;82.30;;;;;;9182703;19;20487;-66
2022/04/06 05:14:59;;;;;;;23.02;6.45;;;10.50;82.20;;;;;;9180409;19;20011;-65
2022/04/06 05:18:04;;;;;;;21.63;5.03;;;10.60;82.20;;;;;;9182776;19;20018;-65
2022/04/06 05:21:09;;;;;;;17.52;4.32;;;10.50;82.10;;;;;;9182807;19;20909;-66
2022/04/06 05:24:14;;;;;;;16.63;3.88;;;10.50;82.00;;;;;;9183611;19;20478;-66
2022/04/06 05:27:19;;;;;;;16.63;5.55;;;10.50;82.00;;;;;;9179275;19;20486;-66
2022/04/06 05:30:29;;;;;;;12.05;4.05;;;10.50;82.00;;;;;;9168086;19;20033;-66
2022/04/06 05:33:34;;;;;;;12.70;3.03;;;10.50;81.90;;;;;;9175510;19;20022;-66
2022/04/06 05:36:39;;;;;;;11.70;3.33;;;10.50;81.90;;;;;;9176791;19;20018;-66
2022/04/06 05:39:44;;;;;;;13.45;2.78;;;10.50;81.90;;;;;;9174957;19;20018;-65
2022/04/06 05:42:49;;;;;;;11.55;3.45;;;10.40;81.70;;;;;;9176487;19;20384;-66
2022/04/06 05:45:57;;;;;;;16.05;3.58;;;10.40;81.70;;;;;;9173531;19;20055;-66
2022/04/06 05:49:03;;;;;;;16.27;3.97;;;10.40;81.70;;;;;;9170572;19;21675;-67
2022/04/06 05:52:08;;;;;;;11.32;2.72;;;10.40;81.70;;;;;;9172783;19;20019;-66
2022/04/06 05:55:14;;;;;;;10.60;2.72;;;10.40;81.60;;;;;;9175145;19;20590;-66
2022/04/06 05:58:18;;;;;;;12.60;2.40;;;10.40;81.60;;;;;;9179717;19;20022;-65
2022/04/06 06:01:26;;;;;;;13.23;2.88;;;10.40;81.50;;;;;;9177700;19;20015;-65
2022/04/06 06:04:33;;;;;;;9.98;2.55;;;10.40;81.50;;;;;;9178486;19;20022;-66
2022/04/06 06:07:38;;;;;;;12.90;2.80;;;10.40;81.50;;;;;;9177633;19;20114;-66
2022/04/06 06:10:43;;;;;;;12.30;2.40;;;10.40;81.50;;;;;;9178783;19;20022;-66
2022/04/06 06:13:48;;;;;;;15.15;4.18;;;10.40;81.60;;;;;;9182343;19;20483;-66
2022/04/06 06:16:58;;;;;;;11.98;3.35;;;10.40;81.40;;;;;;9186656;19;20018;-66
2022/04/06 06:20:03;;;;;;;11.98;3.88;;;10.30;81.30;;;;;;9183908;19;20023;-66
2022/04/06 06:23:09;;;;;;;12.68;3.63;;;10.40;81.40;;;;;;9179988;19;20474;-66
2022/04/06 06:26:14;;;;;;;12.00;3.33;;;10.40;81.40;;;;;;9183975;19;20511;-66
2022/04/06 06:29:19;;;;;;;14.75;3.22;;;10.40;81.40;;;;;;9187404;19;20014;-66
2022/04/06 06:32:26;;;;;;;14.25;4.25;;;10.40;81.40;;;;;;9190747;19;20015;-67
2022/04/06 06:35:31;;;;;;;12.80;2.97;;;10.40;81.40;;;;;;9184946;19;20482;-66
2022/04/06 06:38:36;;;;;;;22.08;4.13;;;10.40;81.40;;;;;;9186038;19;20029;-67
2022/04/06 06:41:42;;;;;;;15.25;3.58;;;10.40;81.40;;;;;;9187996;19;20051;-66
2022/04/06 06:44:47;;;;;;;11.55;3.17;;;10.40;81.40;;;;;;9190770;19;20022;-65
2022/04/06 06:47:55;;;;;;;12.32;3.58;;;10.50;81.40;;;;;;9188640;19;20025;-66
2022/04/06 06:51:00;;;;;;;16.42;4.07;;;10.50;81.30;;;;;;9184895;19;20018;-65
2022/04/06 06:54:04;;;;;;;9.57;3.20;;;10.50;81.30;;;;;;9187835;19;20362;-65
2022/04/06 06:57:11;;;;;;;14.88;3.88;;;10.50;81.20;;;;;;9188201;19;20014;-66
2022/04/06 07:00:17;;;;;;;13.95;3.35;;;10.50;81.10;;;;;;9189761;19;20047;-65
2022/04/06 07:03:26;;;;;;;13.18;3.92;;;10.60;81.20;;;;;;9188582;19;20025;-65
2022/04/06 07:06:31;;;;;;;15.82;3.60;;;10.60;81.10;;;;;;9184041;19;20018;-64
2022/04/06 07:09:36;;;;;;;19.80;4.55;;;10.60;81.10;;;;;;9178348;19;20019;-65
2022/04/06 07:12:41;;;;;;;11.52;3.72;;;10.60;81.00;;;;;;9181151;19;20021;-64
2022/04/06 07:15:47;;;;;;;21.13;4.57;;;10.60;81.00;;;;;;9180468;19;20025;-65
2022/04/06 07:18:54;;;;;;;20.40;4.13;;;10.60;80.90;;;;;;9178039;19;20018;-64
2022/04/06 07:21:59;;;;;;;10.68;4.28;;;10.60;80.90;;;;;;9182210;19;20029;-64
2022/04/06 07:25:05;;;;;;;13.55;3.95;;;10.70;80.90;;;;;;9185965;19;20025;-64
2022/04/06 07:28:10;;;;;;;16.30;4.25;;;10.60;80.80;;;;;;9184327;19;20010;-65
2022/04/06 07:31:15;;;;;;;17.38;4.65;;;10.70;80.80;;;;;;9182216;19;20043;-66
2022/04/06 07:34:23;;;;;;;16.77;4.85;;;10.70;80.80;;;;;;9183181;19;20037;-65
2022/04/06 07:37:28;;;;;;;18.73;5.40;;;10.70;80.80;;;;;;9184602;19;20356;-64
2022/04/06 07:40:35;;;;;;;16.45;5.13;;;10.70;80.80;;;;;;9185389;19;20030;-64
2022/04/06 07:43:40;;;;;;;12.30;4.72;;;10.70;80.70;;;;;;9185042;19;20086;-64
2022/04/06 07:46:45;;;;;;;17.75;5.63;;;10.70;80.70;;;;;;9184502;19;20006;-64
2022/04/06 07:49:53;;;;;;;12.02;5.38;;;10.70;80.70;;;;;;9183754;19;20018;-64
2022/04/06 07:52:58;;;;;;;21.63;5.70;;;10.70;80.70;;;;;;9179310;19;20015;-64
2022/04/06 07:56:03;;;;;;;17.23;5.43;;;10.70;80.60;;;;;;9180281;19;20011;-66
2022/04/06 07:59:08;;;;;;;17.23;5.13;;;10.80;80.70;;;;;;9185022;19;20011;-65
2022/04/06 08:02:13;;;;;;;16.52;5.40;;;10.80;80.60;;;;;;9184044;19;20436;-66
2022/04/06 08:05:21;;;;;;;22.30;5.60;;;10.80;80.60;;;;;;9045729;19;2716531;-64
2022/04/06 08:08:26;;;;;;;12.10;4.50;;;10.80;80.60;;;;;;9183235;19;20082;-66
2022/04/06 08:11:31;;;;;;;16.10;5.25;;;10.80;80.60;;;;;;9187659;19;20018;-64
2022/04/06 08:14:36;;;;;;;20.63;5.60;;;10.80;80.70;;;;;;9185589;19;20346;-64
2022/04/06 08:17:43;;;;;;;18.63;5.75;;;10.80;80.60;;;;;;9185430;19;20019;-65
2022/04/06 08:20:51;;;;;;;23.02;5.55;;;10.90;80.70;;;;;;9186707;19;20006;-64
2022/04/06 08:23:59;;;;;;;13.93;5.10;;;10.90;80.70;;;;;;9185702;19;20014;-64
2022/04/06 08:27:12;;;;;;;17.25;5.32;;;10.90;80.60;;;;;;9187226;19;20014;-64
2022/04/06 08:30:20;;;;;;;16.08;4.55;;;10.90;80.60;;;;;;9186492;19;20025;-64
2022/04/06 08:33:26;;;;;;;17.85;5.13;;;11.00;80.60;;;;;;9186994;19;20563;-62
2022/04/06 08:36:39;;;;;;;21.10;4.65;;;11.00;80.60;;;;;;9180323;19;20373;-64
2022/04/06 08:39:57;;;;;;;14.70;4.60;;;11.10;80.60;;;;;;9184421;19;20018;-62
2022/04/06 08:43:22;;;;;;;15.00;3.70;;;11.10;80.50;;;;;;9185338;19;20459;-63
2022/04/06 08:46:28;;;;;;;14.23;3.88;;;11.20;80.50;;;;;;9183918;19;20017;-64
2022/04/06 08:49:36;;;;;;;11.13;3.45;;;11.20;80.40;;;;;;9185437;19;20011;-64
2022/04/06 08:52:44;;;;;;;13.60;3.10;;;11.30;80.30;;;;;;9181383;19;20364;-63
2022/04/06 08:56:04;;;;;;;10.88;2.90;;;11.30;80.10;;;;;;9181371;19;20498;-63
2022/04/06 08:59:10;;;;;;;10.68;3.67;;;11.30;80.10;;;;;;9181890;19;20014;-63
2022/04/06 09:02:20;;;;;;;13.80;3.28;;;11.40;80.10;;;;;;9184114;19;20022;-64
2022/04/06 09:05:27;;;;;;;9.75;2.58;;;11.40;80.00;;;;;;9183471;19;20014;-63
2022/04/06 09:08:43;;;;;;;14.50;2.90;;;11.40;79.90;;;;;;9183846;19;20032;-63
2022/04/06 09:11:48;;;;;;;12.90;2.88;;;11.40;79.70;;;;;;9183093;19;20329;-63
2022/04/06 09:15:07;;;;;;;14.30;2.50;;;11.40;79.70;;;;;;9182012;19;20023;-64
2022/04/06 09:18:12;;;;;;;14.40;2.88;;;11.40;79.60;;;;;;9183461;19;20011;-64
2022/04/06 09:21:21;;;;;;;7.78;2.38;;;11.50;79.70;;;;;;9183825;19;20010;-63
2022/04/06 09:24:29;;;;;;;11.35;1.80;;;11.50;79.60;;;;;;9182059;19;20593;-65
2022/04/06 09:27:34;;;;;;;12.32;2.88;;;11.50;79.50;;;;;;9184072;19;20019;-64
2022/04/06 09:30:44;;;;;;;10.60;3.38;;;11.50;79.50;;;;;;9183720;19;20595;-63
2022/04/06 09:33:59;;;;;;;10.90;2.25;;;11.50;79.40;;;;;;9181822;19;20014;-63
2022/04/06 09:37:26;;;;;;;16.42;3.45;;;11.60;79.40;;;;;;9182100;19;20026;-64
2022/04/06 09:40:34;;;;;;;9.50;2.15;;;11.60;79.40;;;;;;9182376;19;20015;-65
2022/04/06 09:43:39;;;;;;;11.85;2.47;;;11.60;79.40;;;;;;9181756;19;20015;-64
2022/04/06 09:50:12;;;;;;;16.48;2.67;;;11.60;79.20;;;;;;9182186;19;20014;-63
2022/04/06 09:53:28;;;;;;;7.88;1.90;;;11.60;79.10;;;;;;9177864;19;20006;-65
2022/04/06 09:56:36;;;;;;;5.72;2.05;;;11.60;79.10;;;;;;9180542;19;20019;-64
2022/04/06 09:59:45;;;;;;;14.70;2.75;;;11.50;79.00;;;;;;9182417;19;20010;-65
2022/04/06 10:02:53;;;;;;;10.52;2.60;;;11.50;79.10;;;;;;9181945;19;20014;-63
2022/04/06 10:05:58;;;;;;;14.07;2.10;;;11.50;79.00;;;;;;9182970;19;20033;-63
2022/04/06 10:09:05;;;;;;;8.10;2.70;;;11.50;79.60;;;;;;9180489;19;20011;-63
2022/04/06 10:12:14;;;;;;;9.60;2.35;;;11.50;79.00;;;;;;9175211;19;20019;-63
2022/04/06 10:15:20;;;;;;;10.40;2.80;;;11.40;79.00;;;;;;9176168;19;20025;-63
2022/04/06 10:18:26;;;;;;;5.65;2.13;;;11.40;79.00;;;;;;9175260;19;20021;-63
2022/04/06 10:21:39;;;;;;;9.82;3.17;;;11.40;79.10;;;;;;9175854;19;20021;-64
2022/04/06 10:24:57;;;;;;;7.72;2.92;;;11.30;79.10;;;;;;9174475;19;20014;-64
2022/04/06 10:28:11;;;;;;;15.40;3.83;;;11.30;79.10;;;;;;9175331;19;20451;-64
2022/04/06 10:31:22;;;;;;;7.57;3.83;;;11.30;79.20;;;;;;9174427;19;20624;-64
2022/04/06 10:34:31;;;;;;;5.25;3.40;;;11.30;79.30;;;;;;9172887;19;20075;-65
2022/04/06 10:37:36;;;;;;;14.15;3.80;;;11.30;79.30;;;;;;9172667;19;20025;-63
2022/04/06 10:41:00;;;;;;;12.70;4.03;;;11.30;79.40;;;;;;9173374;19;20014;-64
2022/04/06 10:44:39;;;;;;;16.05;4.00;;;11.30;79.60;;;;;;9173613;19;20102;-64
2022/04/06 10:48:11;;;;;;;9.43;4.03;;;11.30;79.70;;;;;;9172948;19;20734;-65
2022/04/06 10:51:33;;;;;;;15.07;4.45;;;11.30;79.80;;;;;;9172158;19;20010;-64
2022/04/06 10:54:42;;;;;;;7.22;4.03;;;11.20;79.80;;;;;;9173584;19;20367;-64
2022/04/06 10:58:03;;;;;;;10.48;4.30;;;11.20;79.80;;;;;;9173885;19;20815;-64
2022/04/06 11:01:20;;;;;;;9.40;4.50;;;11.20;79.90;;;;;;9182208;19;20633;-64
2022/04/06 11:04:26;;;;;;;13.68;4.57;;;11.20;79.90;;;;;;9179188;19;20021;-64
2022/04/06 11:11:35;;;;;;;12.52;4.50;;;11.20;80.00;;;;;;9183320;19;20018;-64
2022/04/06 11:14:40;;;;;;;9.52;4.88;;;11.30;80.10;;;;;;9184104;19;20523;-64
2022/04/06 11:17:48;;;;;;;9.95;4.68;;;11.20;80.00;;;;;;9178578;19;20011;-64
2022/04/06 11:21:03;;;;;;;12.05;5.15;;;11.30;80.10;;;;;;9183681;19;20021;-64
2022/04/06 11:24:10;;;;;;;12.27;5.90;;;11.30;80.30;;;;;;9182018;19;20023;-64
2022/04/06 11:27:28;;;;;;;13.60;5.55;;;11.30;80.30;;;;;;9183869;19;20014;-64
2022/04/06 11:30:36;;;;;;;10.88;5.43;;;11.30;80.40;;;;;;9181334;19;20468;-64
2022/04/06 11:33:45;;;;;;;12.05;5.43;;;11.30;80.30;;;;;;9180328;19;20019;-64
2022/04/06 11:36:50;;;;;;;13.48;5.75;;;11.30;80.40;;;;;;9181611;19;20022;-64
2022/04/06 11:39:59;;;;;;;16.60;5.75;;;11.20;80.30;;;;;;9180275;19;20018;-64
2022/04/06 11:43:05;;;;;;;9.63;5.38;;;11.20;80.40;;;;;;9180736;19;20014;-64
2022/04/06 11:46:10;;;;;;;10.82;4.72;;;11.20;80.50;;;;;;9181905;19;20018;-64
2022/04/06 11:49:23;;;;;;;16.08;5.32;;;11.20;81.20;;;;;;9180536;19;20498;-63
2022/04/06 11:52:29;;;;;;;8.10;5.35;;;11.20;80.60;;;;;;9177062;19;20029;-65
2022/04/06 11:55:47;;;;;;;10.27;5.22;;;11.20;80.60;;;;;;9181634;19;20022;-63
2022/04/06 11:58:57;;;;;;;11.13;4.68;;;11.20;80.80;;;;;;9178826;19;20085;-63
2022/04/06 12:02:02;;;;;;;9.02;5.10;;;11.20;80.70;;;;;;9182468;19;20023;-63
2022/04/06 12:05:11;;;;;;;6.68;4.68;;;11.10;80.80;;;;;;9179696;19;20730;-63
2022/04/06 12:08:17;;;;;;;9.90;5.18;;;11.10;80.90;;;;;;9177041;19;20034;-63
2022/04/06 12:11:22;;;;;;;9.93;4.38;;;11.10;80.90;;;;;;9179274;19;20014;-63
2022/04/06 12:14:27;;;;;;;8.90;4.30;;;11.10;81.00;;;;;;9181982;19;20022;-63
2022/04/06 12:17:33;;;;;;;9.15;4.50;;;11.10;81.00;;;;;;9179487;19;20011;-64
2022/04/06 12:20:41;;;;;;;8.80;3.88;;;11.10;81.00;;;;;;9180092;19;20489;-63
2022/04/06 12:23:48;;;;;;;10.57;4.00;;;11.10;81.00;;;;;;9178755;19;20018;-63
2022/04/06 12:26:54;;;;;;;9.13;4.25;;;11.10;81.10;;;;;;9180740;19;20344;-62
2022/04/06 12:30:08;;;;;;;6.45;4.43;;;11.10;81.10;;;;;;9179673;19;20006;-63
2022/04/06 12:33:13;;;;;;;7.13;4.00;;;11.10;81.20;;;;;;9179029;19;20482;-63
2022/04/06 12:36:22;;;;;;;8.70;4.18;;;11.10;81.20;;;;;;9178600;19;20010;-64
2022/04/06 12:39:28;;;;;;;11.77;4.03;;;11.10;81.40;;;;;;9183337;19;20027;-63
2022/04/06 12:42:39;;;;;;;13.15;4.95;;;11.20;81.30;;;;;;9184064;19;20010;-64
2022/04/06 12:45:52;;;;;;;13.75;5.25;;;11.20;81.40;;;;;;9183497;19;20047;-63
2022/04/06 12:49:21;;;;;;;9.68;4.07;;;11.20;81.40;;;;;;9184721;19;20479;-63
2022/04/06 12:52:29;;;;;;;7.78;4.20;;;11.20;81.40;;;;;;9179497;19;20011;-63
2022/04/06 12:55:34;;;;;;;11.68;5.03;;;11.20;81.30;;;;;;9184108;19;20026;-63
2022/04/06 12:58:39;;;;;;;11.65;5.05;;;11.20;81.30;;;;;;9182607;19;20023;-63
2022/04/06 13:01:49;;;;;;;10.05;4.85;;;11.20;81.40;;;;;;9184394;19;20341;-63
2022/04/06 13:04:55;;;;;;;8.48;4.53;;;11.20;81.50;;;;;;9184917;19;20047;-64
2022/04/06 13:08:05;;;;;;;8.00;4.07;;;11.20;81.50;;;;;;9181794;19;20023;-63
2022/04/06 13:11:10;;;;;;;9.23;4.80;;;11.20;81.50;;;;;;9182631;19;20011;-64
2022/04/06 13:14:15;;;;;;;16.92;4.35;;;11.20;81.50;;;;;;9182551;19;20014;-63
2022/04/06 13:17:20;;;;;;;10.80;3.83;;;11.30;81.60;;;;;;9182957;19;20478;-64
2022/04/06 13:20:26;;;;;;;11.63;4.43;;;11.30;81.60;;;;;;9181336;19;20070;-63
2022/04/06 13:23:34;;;;;;;10.45;3.90;;;11.30;81.60;;;;;;9182481;19;20022;-63
2022/04/06 13:26:39;;;;;;;13.25;4.03;;;11.30;81.60;;;;;;9182608;19;20022;-66
2022/04/06 13:29:45;;;;;;;9.30;3.95;;;11.30;81.60;;;;;;9184877;19;20006;-63
2022/04/06 13:32:51;;;;;;;9.63;3.75;;;11.30;81.70;;;;;;9183262;19;20428;-64
2022/04/06 13:35:56;;;;;;;7.13;3.83;;;11.30;81.60;;;;;;9182117;19;20376;-63
2022/04/06 13:39:05;;;;;;;10.50;3.35;;;11.30;81.60;;;;;;9180389;19;20015;-64
2022/04/06 13:42:10;;;;;;;11.07;3.72;;;11.30;81.60;;;;;;9183545;19;20491;-63
2022/04/06 13:45:15;;;;;;;10.02;4.20;;;11.30;81.60;;;;;;9181836;19;20600;-63
2022/04/06 13:48:21;;;;;;;10.18;3.70;;;11.30;81.60;;;;;;9181464;19;20015;-63
2022/04/06 13:51:26;;;;;;;9.68;3.75;;;11.30;81.50;;;;;;9179120;19;20462;-63
2022/04/06 13:54:35;;;;;;;7.50;3.70;;;11.30;81.60;;;;;;9182210;19;20070;-63
2022/04/06 13:57:40;;;;;;;10.80;4.35;;;11.30;81.60;;;;;;9180615;19;20010;-63
2022/04/06 14:00:46;;;;;;;8.70;3.45;;;11.30;81.60;;;;;;9181474;19;20016;-62
2022/04/06 14:03:51;;;;;;;7.97;3.30;;;11.30;81.60;;;;;;9180590;19;20488;-63
2022/04/06 14:06:56;;;;;;;5.85;3.63;;;11.30;81.60;;;;;;9175403;19;20022;-63
2022/04/06 14:10:04;;;;;;;10.55;3.30;;;11.40;81.70;;;;;;9177788;19;20011;-63
2022/04/06 14:13:09;;;;;;;11.38;3.60;;;11.40;81.60;;;;;;9177858;19;20034;-63
2022/04/06 14:16:14;;;;;;;8.18;3.38;;;11.40;81.60;;;;;;9177628;19;20018;-63
2022/04/06 14:19:19;;;;;;;8.32;3.53;;;11.40;81.60;;;;;;9172326;19;20010;-64
2022/04/06 14:22:25;;;;;;;10.75;3.85;;;11.40;81.60;;;;;;9174418;19;20019;-64
2022/04/06 14:25:32;;;;;;;6.25;3.58;;;11.40;81.50;;;;;;9176623;19;20014;-63
2022/04/06 14:28:38;;;;;;;7.82;3.13;;;11.40;81.50;;;;;;9174634;19;20021;-62
2022/04/06 14:31:43;;;;;;;9.30;3.65;;;11.50;81.60;;;;;;9176287;19;20019;-64
2022/04/06 14:34:50;;;;;;;10.55;3.42;;;11.50;81.60;;;;;;9183575;19;20018;-65
2022/04/06 14:37:55;;;;;;;8.75;3.10;;;11.50;81.50;;;;;;9182962;19;20345;-63
2022/04/06 14:41:05;;;;;;;8.27;3.42;;;11.50;81.50;;;;;;9183752;19;20010;-62
2022/04/06 14:44:10;;;;;;;7.95;3.55;;;11.50;81.50;;;;;;9183784;19;20036;-64
2022/04/06 14:47:14;;;;;;;7.75;3.53;;;11.50;81.40;;;;;;9183221;19;20017;-63
2022/04/06 14:50:20;;;;;;;7.90;3.35;;;11.60;81.40;;;;;;9183034;19;20018;-64
2022/04/06 14:53:26;;;;;;;6.90;3.60;;;11.60;81.40;;;;;;9180506;19;20364;-63
2022/04/06 14:56:33;;;;;;;11.38;3.05;;;11.60;81.90;;;;;;9183707;19;20664;-63
2022/04/06 14:59:42;;;;;;;6.40;3.33;;;11.60;81.30;;;;;;9178532;19;20021;-64
2022/04/06 15:02:47;;;;;;;8.40;3.30;;;11.60;81.30;;;;;;9184770;19;20018;-65
2022/04/06 15:05:52;;;;;;;8.27;3.47;;;11.60;81.30;;;;;;9182020;19;20018;-64
2022/04/06 15:08:57;;;;;;;6.75;4.35;;;11.60;81.30;;;;;;9178743;19;20015;-64
2022/04/06 15:12:05;;;;;;;7.50;3.60;;;11.60;81.30;;;;;;9183142;19;20023;-64
2022/04/06 15:15:11;;;;;;;8.98;3.75;;;11.60;81.30;;;;;;9182664;19;20018;-63
2022/04/06 15:18:16;;;;;;;9.38;3.63;;;11.60;81.40;;;;;;9180836;19;20019;-65
2022/04/06 15:21:22;;;;;;;9.40;3.58;;;11.60;81.30;;;;;;9183613;19;20014;-63
2022/04/06 15:24:27;;;;;;;5.70;3.80;;;11.60;81.40;;;;;;9180036;19;20479;-63
2022/04/06 15:27:35;;;;;;;6.35;3.30;;;11.60;81.40;;;;;;9178733;19;20019;-64
2022/04/06 15:30:41;;;;;;;7.55;3.60;;;11.60;81.40;;;;;;9178943;19;20014;-64
2022/04/06 15:33:46;;;;;;;10.60;3.75;;;11.60;81.40;;;;;;9174931;19;20014;-64
2022/04/06 15:40:10;;;;;;;6.07;3.58;;;11.60;81.40;;;;;;9179570;19;20014;-63
2022/04/06 15:43:17;;;;;;;7.60;4.43;;;11.60;81.40;;;;;;9180981;19;20038;-63
2022/04/06 15:46:22;;;;;;;9.55;4.53;;;11.70;81.50;;;;;;9179498;19;20597;-63
2022/04/06 15:49:27;;;;;;;8.48;3.95;;;11.60;81.40;;;;;;9180512;19;20114;-62
2022/04/06 15:52:33;;;;;;;6.00;3.90;;;11.60;81.40;;;;;;9177991;19;20689;-62
2022/04/06 15:55:38;;;;;;;7.65;4.45;;;11.60;81.40;;;;;;9186488;19;20026;-64
2022/04/06 15:58:46;;;;;;;9.20;4.25;;;11.60;81.50;;;;;;9185522;19;20555;-62
2022/04/06 16:01:50;;;;;;;6.03;3.75;;;11.50;81.50;;;;;;9186028;19;20018;-63
2022/04/06 16:04:56;;;;;;;8.98;4.13;;;11.50;81.50;;;;;;9187575;19;20014;-69
2022/04/06 16:08:01;;;;;;;7.10;4.05;;;11.50;81.50;;;;;;9186321;19;20351;-63
2022/04/06 16:11:06;;;;;;;6.65;4.30;;;11.50;81.50;;;;;;9181017;19;20605;-65
2022/04/06 16:14:14;;;;;;;4.60;3.28;;;11.50;81.60;;;;;;9180857;19;20043;-64